This is the latest recevied weather packets stored in our database for station/object WX5RP. If no packets are shown the sender has not sent any weather packets the latest 10 day(s).
| Time | Temp. | Humidity | Pressure | Rain* | Wind** | Luminosity | Snow |
|---|---|---|---|---|---|---|---|
| 1777923316 | 22.78° C | 32% | 1011.9 hPa | 0 mm | - | 992 W/m² | - |
| 1777922717 | 22.78° C | 30% | 1012.1 hPa | 0 mm | - | 788 W/m² | - |
| 1777922116 | 22.78° C | 30% | 1012.1 hPa | 0 mm | - | 990 W/m² | - |
| 1777921516 | 22.22° C | 29% | 1012.2 hPa | 0 mm | - | 1016 W/m² | - |
| 1777920916 | 23.33° C | 25% | 1012.3 hPa | 0 mm | - | 1094 W/m² | - |
| 1777920316 | 22.22° C | 25% | 1011.7 hPa | 0 mm | - | 1052 W/m² | - |
| 1777919716 | 21.11° C | 30% | 1011.9 hPa | 0 mm | - | 571 W/m² | - |
| 1777919116 | 22.22° C | 31% | 1012.2 hPa | 0 mm | - | 678 W/m² | - |
| 1777918516 | 22.22° C | 28% | 1012.2 hPa | 0 mm | - | 970 W/m² | - |
| 1777917916 | 22.78° C | 28% | 1012.3 hPa | 0 mm | - | 560 W/m² | - |
| 1777917316 | 21.11° C | 32% | 1012.8 hPa | 0 mm | - | 868 W/m² | - |
| 1777916716 | 21.11° C | 33% | 1012.5 hPa | 0 mm | - | 849 W/m² | - |
| 1777916116 | 21.11° C | 31% | 1012.7 hPa | 0 mm | - | 829 W/m² | - |
| 1777915515 | 20° C | 34% | 1012.8 hPa | 0 mm | - | 810 W/m² | - |
| 1777914915 | 19.44° C | 34% | 1012.5 hPa | 0 mm | - | 786 W/m² | - |
| 1777914315 | 18.89° C | 34% | 1013.1 hPa | 0 mm | - | 765 W/m² | - |
| 1777913715 | 18.89° C | 36% | 1012.8 hPa | 0 mm | - | 741 W/m² | - |
| 1777913115 | 18.89° C | 35% | 1013.4 hPa | 0 mm | - | 711 W/m² | - |
| 1777912517 | 17.78° C | 40% | 1014.1 hPa | 0 mm | - | 691 W/m² | - |
| 1777911915 | 16.67° C | 39% | 1014.1 hPa | 0 mm | - | 677 W/m² | - |
| 1777911317 | 16.11° C | 44% | 1014.2 hPa | 0 mm | - | 530 W/m² | - |
| 1777910717 | 15.56° C | 46% | 1013.1 hPa | 0 mm | - | 367 W/m² | - |
| 1777910117 | 15° C | 49% | 1013.1 hPa | 0 mm | - | 475 W/m² | - |
| 1777909517 | 14.44° C | 51% | 1013.1 hPa | 0 mm | - | 543 W/m² | - |
| 1777908917 | 13.89° C | 56% | 1013.6 hPa | 0 mm | - | 496 W/m² | - |
* Rain latest hour (hover to see other rain measurements)
** Current wind speed in m/s (hover to see current wind gust speed)